Time;durP1;ratioP1;P1;durP2;ratioP2;P2;SDS_P1;SDS_P2;PMS_P1;PMS_P2;Temp;Humidity;BMP_temperature;BMP_pressure;BME280_temperature;BME280_humidity;BME280_pressure;Samples;Min_cycle;Max_cycle;Signal;HPM_P1;HPM_P2
2023/08/19 00:00:48;;;;;;;17.53;6.30;;;;;;;23.80;100.00;100408.91;5025312;28;20068;-55
2023/08/19 00:03:18;;;;;;;24.30;6.70;;;;;;;23.96;100.00;100404.19;5004632;28;20045;-54
2023/08/19 00:05:49;;;;;;;13.13;5.73;;;;;;;24.22;100.00;100398.84;5031485;28;20041;-58
2023/08/19 00:08:21;;;;;;;16.33;6.67;;;;;;;24.60;100.00;100397.91;5032766;28;20064;-56
2023/08/19 00:10:54;;;;;;;14.60;6.13;;;;;;;24.79;97.19;100400.09;5053964;28;20053;-57
2023/08/19 00:13:24;;;;;;;20.27;6.97;;;;;;;25.00;95.66;100394.97;5053306;28;20057;-56
2023/08/19 00:15:55;;;;;;;16.90;6.47;;;;;;;25.00;95.97;100389.63;5023849;28;20087;-54
2023/08/19 00:18:25;;;;;;;14.93;6.37;;;;;;;25.05;94.29;100388.31;5027224;28;20043;-56
2023/08/19 00:20:56;;;;;;;16.07;6.23;;;;;;;25.03;94.70;100384.06;5013675;28;20057;-55
2023/08/19 00:23:27;;;;;;;10.73;5.60;;;;;;;25.01;95.74;100397.56;5014107;28;20139;-57
2023/08/19 00:25:59;;;;;;;15.60;5.33;;;;;;;24.98;95.38;100387.91;5013381;28;20136;-55
2023/08/19 00:28:29;;;;;;;14.23;5.10;;;;;;;25.01;94.69;100385.97;5008517;28;20033;-55
2023/08/19 00:31:00;;;;;;;13.57;4.60;;;;;;;24.98;96.03;100387.91;4998896;28;20042;-55
2023/08/19 00:33:31;;;;;;;10.10;4.20;;;;;;;24.95;94.72;100382.81;5008885;28;20048;-55
2023/08/19 00:36:02;;;;;;;11.23;4.10;;;;;;;24.90;95.03;100379.63;5000280;28;20041;-55
2023/08/19 00:38:33;;;;;;;10.53;4.40;;;;;;;24.84;95.73;100385.44;5009711;28;20045;-56
2023/08/19 00:41:05;;;;;;;14.27;5.07;;;;;;;24.72;95.27;100375.66;4999020;28;20137;-55
2023/08/19 00:43:36;;;;;;;16.27;6.03;;;;;;;24.75;95.14;100380.75;5009441;28;20152;-54
2023/08/19 00:46:09;;;;;;;13.30;5.50;;;;;;;24.73;95.18;100347.94;4999172;28;20423;-55
2023/08/19 00:48:40;;;;;;;15.93;5.40;;;;;;;25.12;95.22;100378.03;5008815;28;20413;-56
2023/08/19 00:51:11;;;;;;;14.00;4.70;;;;;;;25.16;94.10;100384.81;5000787;28;20060;-57
2023/08/19 00:53:42;;;;;;;13.10;4.77;;;;;;;25.30;94.11;100371.28;5006178;28;21501;-55
2023/08/19 00:56:17;;;;;;;13.63;4.87;;;;;;;25.53;95.15;100379.38;5016750;28;20110;-56
2023/08/19 00:58:49;;;;;;;8.40;4.00;;;;;;;25.65;93.40;100370.41;5028931;28;20733;-55
2023/08/19 01:01:20;;;;;;;11.43;4.37;;;;;;;25.59;91.66;100377.09;5018056;28;20393;-56
2023/08/19 01:03:53;;;;;;;13.93;4.63;;;;;;;25.65;92.61;100373.06;5028442;28;20559;-56
2023/08/19 01:06:29;;;;;;;9.40;4.30;;;;;;;25.77;92.64;100372.13;5018261;28;20144;-56
2023/08/19 01:09:12;;;;;;;12.23;4.10;;;;;;;25.91;91.34;100375.56;5018068;28;20501;-55
2023/08/19 01:12:00;;;;;;;10.77;4.40;;;;;;;26.06;91.21;100368.16;5027512;28;20037;-56
2023/08/19 01:14:43;;;;;;;12.68;2.95;;;;;;;26.11;90.15;100371.31;5017749;28;20315;-57
2023/08/19 01:17:19;;;;;;;9.13;2.80;;;;;;;26.20;87.82;100379.47;5017555;28;20192;-54
2023/08/19 01:19:51;;;;;;;8.37;3.40;;;;;;;26.07;86.78;100376.06;5028283;28;20434;-57
2023/08/19 01:22:33;;;;;;;6.07;2.90;;;;;;;25.98;87.72;100356.22;5016006;28;20033;-57
2023/08/19 01:25:08;;;;;;;6.57;3.00;;;;;;;26.03;88.89;100358.53;5000369;28;20059;-55
2023/08/19 01:27:41;;;;;;;6.30;3.20;;;;;;;26.10;87.95;100354.41;5008052;28;20105;-59
2023/08/19 01:30:13;;;;;;;7.30;3.13;;;;;;;26.11;88.31;100349.88;4998819;28;20059;-56
2023/08/19 01:32:46;;;;;;;11.10;3.67;;;;;;;26.09;87.99;100347.34;5008013;28;20567;-57
2023/08/19 01:35:19;;;;;;;6.03;3.43;;;;;;;26.01;88.02;100356.00;4997453;28;20369;-55
2023/08/19 01:38:01;;;;;;;8.03;3.30;;;;;;;25.92;88.89;100353.19;5007916;28;20054;-56
2023/08/19 01:40:39;;;;;;;8.17;3.40;;;;;;;25.82;87.91;100355.72;4982820;28;20062;-56
2023/08/19 01:43:22;;;;;;;14.13;3.40;;;;;;;25.73;88.22;100346.56;4997802;28;20587;-59
2023/08/19 01:45:56;;;;;;;10.17;4.07;;;;;;;25.67;88.98;100341.72;5002472;28;20150;-57
2023/08/19 01:48:37;;;;;;;8.23;3.83;;;;;;;25.77;89.78;100342.69;5007805;28;20388;-56
2023/08/19 01:54:10;;;;;;;;;;;;;;;25.83;88.62;100347.56;4998653;28;20061;-56
2023/08/19 01:56:43;;;;;;;12.97;3.77;;;;;;;25.72;89.47;100344.88;5008875;28;19939;-57
2023/08/19 01:59:13;;;;;;;8.43;2.90;;;;;;;25.57;88.52;100362.97;5012581;28;20452;-58
2023/08/19 02:01:44;;;;;;;6.23;3.13;;;;;;;25.37;88.85;100352.97;5023172;28;20087;-58
2023/08/19 02:04:14;;;;;;;9.20;2.93;;;;;;;25.29;89.95;100350.88;5011001;28;20110;-58
2023/08/19 02:06:45;;;;;;;12.30;3.90;;;;;;;25.18;90.15;100350.84;5022736;28;20059;-58
2023/08/19 02:09:16;;;;;;;11.90;3.60;;;;;;;25.26;92.04;100350.25;5012034;28;20053;-58
2023/08/19 02:11:48;;;;;;;6.90;3.20;;;;;;;25.48;92.68;100352.97;5022337;28;20187;-57
2023/08/19 02:14:18;;;;;;;10.70;3.23;;;;;;;25.01;91.26;100276.38;5009200;28;20044;-57
2023/08/19 02:16:49;;;;;;;13.60;3.30;;;;;;;25.61;91.04;100347.56;5009260;28;20132;-58
2023/08/19 02:19:19;;;;;;;10.10;3.20;;;;;;;25.68;90.24;100354.09;5010131;28;20140;-59
2023/08/19 02:21:50;;;;;;;9.03;2.60;;;;;;;25.50;90.76;100308.22;5022549;28;20053;-58
2023/08/19 02:24:20;;;;;;;9.57;2.30;;;;;;;25.62;90.02;100354.59;5009912;28;20052;-57
2023/08/19 02:26:52;;;;;;;9.03;2.40;;;;;;;25.52;90.04;100332.22;5021993;28;20582;-57
2023/08/19 02:29:23;;;;;;;10.77;2.23;;;;;;;25.71;91.26;100327.13;4992108;28;20115;-56
2023/08/19 02:31:53;;;;;;;8.27;2.50;;;;;;;25.82;89.77;100331.63;4997177;28;20111;-58
2023/08/19 02:34:24;;;;;;;7.70;2.57;;;;;;;25.98;89.66;100328.59;5021396;28;20118;-58
2023/08/19 02:36:54;;;;;;;12.80;3.00;;;;;;;25.89;89.54;100297.22;5013053;28;20044;-58
2023/08/19 02:39:25;;;;;;;11.50;2.73;;;;;;;26.18;89.80;100325.16;5021648;28;20112;-58
2023/08/19 02:41:57;;;;;;;8.53;2.50;;;;;;;26.40;89.85;100312.72;5012503;28;20053;-58
2023/08/19 02:44:28;;;;;;;10.27;3.17;;;;;;;26.47;87.13;100313.91;5015324;28;20576;-57
2023/08/19 02:46:58;;;;;;;7.93;2.87;;;;;;;26.44;86.41;100308.81;4991669;28;20149;-57
2023/08/19 02:49:29;;;;;;;8.07;3.30;;;;;;;26.43;86.82;100317.81;5006381;28;20061;-58
2023/08/19 02:51:59;;;;;;;11.97;2.90;;;;;;;26.44;86.46;100308.81;5010848;28;20519;-56
2023/08/19 02:54:30;;;;;;;10.60;3.57;;;;;;;26.52;86.82;100306.34;5021167;28;20064;-58
2023/08/19 02:57:02;;;;;;;10.33;4.13;;;;;;;26.52;86.14;100311.72;5011694;28;20065;-57
2023/08/19 02:59:33;;;;;;;10.13;4.00;;;;;;;26.62;86.42;100310.00;5022043;28;20045;-56
2023/08/19 03:02:03;;;;;;;9.33;2.77;;;;;;;26.58;85.31;100316.56;5012145;28;20135;-57
2023/08/19 03:04:34;;;;;;;7.50;3.27;;;;;;;26.67;85.56;100315.81;5022366;28;20059;-57
2023/08/19 03:07:05;;;;;;;9.30;3.50;;;;;;;26.72;85.73;100306.56;5012531;28;20047;-57
2023/08/19 03:09:35;;;;;;;11.63;4.03;;;;;;;26.74;84.73;100304.59;5021397;28;20403;-58
2023/08/19 03:12:09;;;;;;;9.63;3.30;;;;;;;26.46;86.70;100239.88;5012228;28;20056;-57
2023/08/19 03:14:40;;;;;;;12.47;4.00;;;;;;;26.88;84.87;100313.19;5022002;28;20056;-57
2023/08/19 03:17:11;;;;;;;11.03;4.07;;;;;;;26.78;83.01;100300.66;5010473;28;20562;-59
2023/08/19 03:19:41;;;;;;;7.93;3.27;;;;;;;26.71;82.91;100312.88;5020769;28;20084;-56
2023/08/19 03:22:12;;;;;;;5.90;3.00;;;;;;;26.67;83.33;100315.81;5009058;28;20143;-58
2023/08/19 03:24:42;;;;;;;13.47;4.80;;;;;;;26.65;83.58;100304.38;5021061;28;20150;-57
2023/08/19 03:27:14;;;;;;;11.13;3.77;;;;;;;26.62;83.84;100301.94;5011450;28;21017;-58
2023/08/19 03:29:46;;;;;;;6.97;4.10;;;;;;;26.77;84.59;100309.69;5021690;28;20053;-57
2023/08/19 03:32:16;;;;;;;8.10;4.10;;;;;;;26.86;84.31;100303.59;5012152;28;20072;-57
2023/08/19 03:34:47;;;;;;;7.53;4.20;;;;;;;26.99;83.79;100298.88;5021818;28;20415;-58
2023/08/19 03:37:17;;;;;;;9.70;4.43;;;;;;;26.99;82.52;100295.34;5011649;28;20069;-57
2023/08/19 03:39:48;;;;;;;6.60;4.73;;;;;;;27.01;83.26;100299.59;5021571;28;20045;-57
2023/08/19 03:42:20;;;;;;;7.17;4.43;;;;;;;27.15;83.31;100284.16;5011193;28;20057;-57
2023/08/19 03:44:51;;;;;;;13.33;5.60;;;;;;;26.96;83.45;100256.25;5021357;28;20057;-57
2023/08/19 03:47:21;;;;;;;10.23;5.03;;;;;;;27.24;82.72;100286.09;5010670;28;20050;-57
2023/08/19 03:49:52;;;;;;;12.10;5.07;;;;;;;27.23;82.22;100279.00;5013375;28;20050;-57
2023/08/19 03:52:23;;;;;;;8.73;4.20;;;;;;;27.20;82.77;100276.59;5009800;28;20160;-58
2023/08/19 03:54:54;;;;;;;8.47;4.97;;;;;;;27.24;84.20;100254.75;5011357;28;20053;-57
2023/08/19 03:57:26;;;;;;;6.27;4.20;;;;;;;27.30;81.97;100256.03;5021298;28;20839;-58
2023/08/19 03:59:57;;;;;;;7.93;4.90;;;;;;;27.29;82.42;100257.03;5010703;28;20063;-58
2023/08/19 04:02:28;;;;;;;8.57;4.63;;;;;;;27.26;83.27;100238.53;5020416;28;20167;-57
2023/08/19 04:05:00;;;;;;;9.53;4.80;;;;;;;27.16;81.89;100216.09;5010856;28;20140;-57
2023/08/19 04:07:31;;;;;;;9.20;4.80;;;;;;;27.44;83.29;100244.13;5021113;28;20112;-58
2023/08/19 04:10:03;;;;;;;7.50;4.53;;;;;;;27.58;83.89;100248.25;4992569;28;20053;-59
2023/08/19 04:12:35;;;;;;;11.23;4.70;;;;;;;27.59;82.44;100241.91;5014796;28;20071;-57
2023/08/19 04:15:08;;;;;;;12.60;4.73;;;;;;;27.54;82.08;100228.91;5011300;28;20151;-59
2023/08/19 04:17:39;;;;;;;11.30;5.23;;;;;;;27.69;82.04;100237.44;5020939;28;20144;-58
2023/08/19 04:20:10;;;;;;;11.03;4.47;;;;;;;27.67;81.92;100244.78;5011385;28;20082;-59
2023/08/19 04:22:41;;;;;;;9.03;4.60;;;;;;;27.66;81.31;100243.09;5020490;28;20159;-57
2023/08/19 04:25:11;;;;;;;10.60;4.97;;;;;;;27.51;82.13;100240.75;5010640;28;20045;-57
2023/08/19 04:27:43;;;;;;;10.87;5.00;;;;;;;27.47;82.41;100236.63;5020646;28;20060;-57
2023/08/19 04:30:15;;;;;;;14.30;4.93;;;;;;;27.58;83.70;100246.41;5010699;28;20057;-58
2023/08/19 04:32:46;;;;;;;10.90;4.80;;;;;;;27.67;83.14;100239.41;5020471;28;20132;-58
2023/08/19 04:35:16;;;;;;;9.00;4.50;;;;;;;27.67;82.57;100234.03;5011246;28;20167;-56
2023/08/19 04:37:47;;;;;;;7.57;4.57;;;;;;;27.42;82.70;100236.19;5014349;28;20516;-57
2023/08/19 04:40:18;;;;;;;8.23;4.60;;;;;;;27.34;83.58;100227.97;4991529;28;20065;-56
2023/08/19 04:42:50;;;;;;;9.33;4.70;;;;;;;27.24;82.92;100227.06;5001139;28;20057;-57
2023/08/19 04:45:20;;;;;;;9.80;4.50;;;;;;;26.99;83.65;100229.16;4990375;28;20092;-55
2023/08/19 04:47:51;;;;;;;7.43;4.27;;;;;;;26.99;85.27;100217.59;5009231;28;20053;-57
2023/08/19 04:50:21;;;;;;;10.13;4.10;;;;;;;27.16;85.93;100210.75;5010395;28;20502;-57
2023/08/19 04:52:52;;;;;;;10.70;4.80;;;;;;;27.21;85.43;100190.63;5020895;28;20057;-58
2023/08/19 04:55:23;;;;;;;8.17;4.10;;;;;;;27.43;85.26;100200.34;5009239;28;20127;-56
2023/08/19 04:57:55;;;;;;;13.17;5.00;;;;;;;27.48;85.38;100203.47;5002342;28;20049;-56
2023/08/19 05:00:25;;;;;;;9.33;4.23;;;;;;;27.61;84.49;100202.34;5013562;28;20466;-57
2023/08/19 05:02:56;;;;;;;11.97;4.33;;;;;;;27.62;84.51;100193.34;5010967;28;20073;-57
2023/08/19 05:05:27;;;;;;;9.73;4.37;;;;;;;27.65;85.25;100187.69;5020926;28;20094;-58
2023/08/19 05:07:58;;;;;;;9.73;4.57;;;;;;;27.72;84.97;100195.03;5010860;28;20053;-57
2023/08/19 05:10:28;;;;;;;11.70;4.50;;;;;;;27.77;83.24;100189.28;5020806;28;20053;-57
2023/08/19 05:13:01;;;;;;;9.20;4.20;;;;;;;27.76;82.68;100190.28;5010432;28;20490;-57
2023/08/19 05:15:31;;;;;;;11.53;4.53;;;;;;;27.68;82.26;100187.41;5023969;28;20270;-58
2023/08/19 05:18:02;;;;;;;7.40;3.97;;;;;;;27.65;82.36;100183.16;5014336;28;20063;-57
2023/08/19 05:20:33;;;;;;;11.80;4.70;;;;;;;27.64;82.86;100183.31;5023541;28;20064;-57
2023/08/19 05:23:03;;;;;;;13.60;4.27;;;;;;;27.67;83.47;100177.66;5014172;28;20142;-57
2023/08/19 05:25:34;;;;;;;7.23;3.73;;;;;;;27.68;82.56;100185.59;5023927;28;20067;-56
2023/08/19 05:28:07;;;;;;;5.90;4.07;;;;;;;27.65;82.84;100182.31;5014012;28;20106;-57
2023/08/19 05:30:38;;;;;;;8.97;3.97;;;;;;;27.44;82.58;100152.88;5023495;28;20048;-56
2023/08/19 05:33:08;;;;;;;10.03;4.23;;;;;;;27.54;83.91;100170.69;5013957;28;20408;-58
2023/08/19 05:35:39;;;;;;;7.03;4.00;;;;;;;27.45;83.56;100155.41;5024411;28;20150;-57
2023/08/19 05:38:09;;;;;;;7.07;3.83;;;;;;;27.45;82.83;100176.88;5013875;28;20060;-57
2023/08/19 05:40:40;;;;;;;7.30;3.97;;;;;;;27.43;84.04;100173.50;5023563;28;20094;-57
2023/08/19 05:43:12;;;;;;;6.63;3.50;;;;;;;27.42;83.45;100170.94;5013960;28;20053;-57
2023/08/19 05:45:42;;;;;;;8.20;3.87;;;;;;;27.46;84.82;100165.19;5023420;28;20128;-57
2023/08/19 05:48:13;;;;;;;7.87;3.83;;;;;;;27.47;84.68;100166.03;5014388;28;20068;-56
2023/08/19 05:50:43;;;;;;;7.10;3.70;;;;;;;27.40;83.87;100163.03;5023174;28;20510;-56
2023/08/19 05:53:14;;;;;;;7.13;3.90;;;;;;;27.30;83.60;100162.97;5014419;28;20507;-59
2023/08/19 05:55:44;;;;;;;9.30;3.43;;;;;;;27.07;84.32;100130.13;5024371;28;20037;-57
2023/08/19 05:58:17;;;;;;;11.97;3.80;;;;;;;27.33;85.13;100167.22;5013359;28;20114;-57
2023/08/19 06:00:47;;;;;;;8.40;3.60;;;;;;;27.28;84.32;100169.47;5022115;28;20059;-57
2023/08/19 06:03:18;;;;;;;16.50;4.00;;;;;;;27.21;84.44;100168.31;5012639;28;20057;-57
2023/08/19 06:05:49;;;;;;;10.80;4.47;;;;;;;27.13;83.99;100165.41;5023083;28;20057;-57
2023/08/19 06:08:19;;;;;;;11.73;4.33;;;;;;;27.07;84.65;100162.28;5005155;28;20068;-58
2023/08/19 06:11:02;;;;;;;9.27;4.40;;;;;;;27.11;86.44;100158.38;5022589;28;20862;-57
2023/08/19 06:13:34;;;;;;;6.30;3.93;;;;;;;26.68;84.83;100084.38;4998363;28;20061;-57
2023/08/19 06:16:06;;;;;;;10.97;3.90;;;;;;;26.96;84.53;100153.47;5012816;28;20052;-58
2023/08/19 06:18:36;;;;;;;11.50;4.17;;;;;;;26.81;85.15;100148.47;5022776;28;20118;-56
2023/08/19 06:21:07;;;;;;;10.80;3.83;;;;;;;26.77;86.30;100133.63;5013005;28;20053;-56
2023/08/19 06:23:37;;;;;;;10.00;4.47;;;;;;;26.94;87.12;100158.16;5017814;28;20048;-57
2023/08/19 06:26:08;;;;;;;10.93;3.60;;;;;;;26.90;86.67;100154.88;4994284;28;20160;-57
2023/08/19 06:28:40;;;;;;;9.63;3.50;;;;;;;26.90;86.36;100154.88;5023714;28;20478;-57
2023/08/19 06:31:11;;;;;;;7.43;4.43;;;;;;;26.95;87.36;100147.28;5013515;28;20036;-57
2023/08/19 06:33:42;;;;;;;10.80;4.60;;;;;;;26.94;87.03;100134.84;5022130;28;20082;-57
2023/08/19 06:36:18;;;;;;;9.43;3.90;;;;;;;26.99;87.11;100134.47;5009926;28;20124;-57
2023/08/19 06:38:55;;;;;;;10.30;4.40;;;;;;;26.99;87.63;100138.00;5003199;28;20132;-57
2023/08/19 06:41:26;;;;;;;11.40;4.13;;;;;;;26.98;87.40;100141.63;4992413;28;20041;-56
2023/08/19 06:44:01;;;;;;;11.93;4.20;;;;;;;26.95;87.21;100136.53;5001393;28;20044;-57
2023/08/19 06:46:32;;;;;;;11.70;4.60;;;;;;;26.91;87.49;100137.81;5022883;28;20087;-57
2023/08/19 06:49:04;;;;;;;8.10;4.03;;;;;;;26.90;87.58;100144.13;5012645;28;20372;-57
2023/08/19 06:51:35;;;;;;;7.17;4.13;;;;;;;26.80;87.44;100137.88;5022971;28;20064;-57
2023/08/19 06:54:06;;;;;;;9.27;4.20;;;;;;;26.78;87.80;100145.19;5012447;28;20554;-56
2023/08/19 06:56:46;;;;;;;13.50;4.77;;;;;;;26.82;88.47;100141.28;5021815;28;20138;-57
2023/08/19 06:59:25;;;;;;;17.23;9.77;;;;;;;26.77;87.57;100138.16;5001208;28;20049;-57
2023/08/19 07:02:02;;;;;;;38.10;23.97;;;;;;;26.78;88.16;100145.19;4993094;28;20338;-56
2023/08/19 07:04:34;;;;;;;45.03;25.30;;;;;;;26.76;87.99;100139.13;5022025;28;20464;-56
2023/08/19 07:07:06;;;;;;;36.67;22.23;;;;;;;26.79;88.81;100146.91;5010568;28;20045;-57
2023/08/19 07:09:37;;;;;;;33.83;19.27;;;;;;;26.63;89.39;100107.16;5002337;28;20057;-58
2023/08/19 07:12:09;;;;;;;24.07;13.73;;;;;;;26.83;88.63;100142.97;4991914;28;20488;-57
2023/08/19 07:14:42;;;;;;;47.90;27.80;;;;;;;26.82;89.20;100135.91;5017074;28;20103;-57
2023/08/19 07:17:15;;;;;;;32.40;18.87;;;;;;;26.81;88.87;100139.56;5012226;28;20055;-57
2023/08/19 07:19:47;;;;;;;35.57;19.63;;;;;;;26.79;88.47;100147.75;5014920;28;20132;-57
2023/08/19 07:22:19;;;;;;;30.43;14.07;;;;;;;26.06;88.20;100017.38;5011579;28;20060;-59
2023/08/19 07:24:51;;;;;;;30.87;16.43;;;;;;;26.80;88.44;100124.47;5021857;28;20610;-56
2023/08/19 07:27:23;;;;;;;29.63;18.17;;;;;;;26.80;88.62;100132.53;5011413;28;20491;-57
2023/08/19 07:29:57;;;;;;;26.70;16.17;;;;;;;26.58;88.44;100086.13;5016851;28;20075;-57
2023/08/19 07:32:28;;;;;;;17.13;6.43;;;;;;;26.73;88.31;100109.91;5016895;28;20522;-57
2023/08/19 07:34:59;;;;;;;24.47;10.47;;;;;;;26.69;88.30;100117.38;5000052;28;20550;-57
2023/08/19 07:37:30;;;;;;;18.27;8.57;;;;;;;26.67;87.86;100116.66;5021179;28;20080;-58
2023/08/19 07:40:01;;;;;;;26.97;14.50;;;;;;;26.57;88.69;100116.59;5010965;28;20127;-57
2023/08/19 07:42:32;;;;;;;34.70;18.57;;;;;;;26.62;89.93;100118.88;5020991;28;20135;-55
2023/08/19 07:45:05;;;;;;;15.60;8.67;;;;;;;26.70;90.47;100120.91;5011154;28;20053;-57
2023/08/19 07:47:36;;;;;;;11.37;7.13;;;;;;;26.64;89.92;100117.75;5021229;28;20080;-56
2023/08/19 07:50:07;;;;;;;12.50;6.10;;;;;;;26.57;90.34;100113.91;5011181;28;20199;-57
2023/08/19 07:52:38;;;;;;;8.60;5.10;;;;;;;26.56;89.75;100125.63;5021287;28;20437;-57
2023/08/19 07:55:10;;;;;;;15.63;6.97;;;;;;;26.51;90.05;100119.78;5011400;28;20079;-57
2023/08/19 07:57:40;;;;;;;11.83;6.80;;;;;;;26.31;90.31;100093.81;5021455;28;20110;-56
2023/08/19 08:00:13;;;;;;;12.30;6.33;;;;;;;26.47;90.21;100129.03;5011320;28;20438;-57
2023/08/19 08:02:44;;;;;;;12.07;5.97;;;;;;;26.42;90.23;100124.06;5021543;28;20140;-57
2023/08/19 08:05:15;;;;;;;11.10;5.77;;;;;;;26.32;90.53;100122.31;5012180;28;20139;-58
2023/08/19 08:07:45;;;;;;;15.83;6.17;;;;;;;26.18;91.23;100102.88;5021915;28;20049;-57
2023/08/19 08:10:16;;;;;;;10.67;5.60;;;;;;;26.29;91.44;100117.22;5011796;28;20399;-56
2023/08/19 08:12:50;;;;;;;17.43;6.87;;;;;;;26.30;91.29;100118.91;5020952;28;20375;-58
2023/08/19 08:15:22;;;;;;;17.50;7.37;;;;;;;26.14;91.13;100120.22;4990243;28;20423;-58
2023/08/19 08:17:52;;;;;;;14.43;6.60;;;;;;;26.06;90.87;100128.03;5001339;28;20141;-57
2023/08/19 08:20:23;;;;;;;15.80;6.10;;;;;;;25.91;91.01;100131.97;4991950;28;20427;-57
2023/08/19 08:22:54;;;;;;;14.23;6.70;;;;;;;25.78;92.28;100135.63;4994331;28;20053;-57
2023/08/19 08:25:26;;;;;;;13.67;7.17;;;;;;;25.67;92.49;100127.63;5005333;28;20367;-57
2023/08/19 08:27:57;;;;;;;11.90;6.60;;;;;;;25.70;92.98;100159.50;5010545;28;20094;-57
2023/08/19 08:30:29;;;;;;;13.30;6.43;;;;;;;25.65;92.91;100150.97;5020296;28;20049;-56
2023/08/19 08:33:00;;;;;;;12.47;6.47;;;;;;;25.60;93.39;100151.34;5010858;28;20732;-56
2023/08/19 08:35:33;;;;;;;17.00;6.90;;;;;;;25.59;93.14;100167.56;5007408;28;20068;-56
2023/08/19 08:38:03;;;;;;;15.37;8.20;;;;;;;25.54;93.21;100177.78;4990894;28;20045;-56
2023/08/19 08:40:34;;;;;;;15.97;7.57;;;;;;;25.33;93.54;100180.31;5000715;28;20140;-56
2023/08/19 08:43:05;;;;;;;13.60;7.80;;;;;;;25.15;93.62;100191.47;4991283;28;20472;-57
2023/08/19 08:45:38;;;;;;;17.43;7.87;;;;;;;24.87;94.57;100182.09;5000438;28;20076;-57
2023/08/19 08:48:11;;;;;;;15.43;8.87;;;;;;;24.68;95.02;100187.13;4990363;28;20059;-56
2023/08/19 08:50:45;;;;;;;16.70;7.63;;;;;;;24.57;96.33;100189.78;5004294;28;20064;-56
2023/08/19 08:53:16;;;;;;;14.73;7.80;;;;;;;24.44;97.02;100206.72;4998578;28;20061;-57
2023/08/19 08:55:46;;;;;;;14.40;8.47;;;;;;;24.08;98.15;100189.78;5024989;28;20091;-56
2023/08/19 08:58:17;;;;;;;13.80;9.17;;;;;;;23.88;99.05;100203.75;5015254;28;20157;-57
2023/08/19 09:00:51;;;;;;;17.07;8.73;;;;;;;23.58;100.00;100202.28;5020708;28;20519;-57
2023/08/19 09:03:27;;;;;;;19.63;10.33;;;;;;;23.41;100.00;100219.50;5014249;28;20072;-57
2023/08/19 09:06:09;;;;;;;16.17;9.57;;;;;;;23.18;100.00;100226.44;5014073;28;20060;-57
2023/08/19 09:09:12;;;;;;;19.80;10.17;;;;;;;23.05;100.00;100225.59;5024330;28;20130;-57
2023/08/19 09:11:48;;;;;;;17.93;8.73;;;;;;;22.47;100.00;100160.28;5027818;28;20107;-57
2023/08/19 09:14:36;;;;;;;15.63;9.00;;;;;;;22.45;100.00;100178.19;5019377;28;20041;-58
2023/08/19 09:17:18;;;;;;;14.50;9.00;;;;;;;22.69;100.00;100224.47;5007113;28;20064;-58
2023/08/19 09:20:00;;;;;;;19.13;10.50;;;;;;;22.59;100.00;100223.38;5026946;28;20136;-59
2023/08/19 09:22:37;;;;;;;18.87;9.60;;;;;;;22.54;100.00;100228.13;5036385;28;20053;-58
2023/08/19 09:25:14;;;;;;;19.60;9.80;;;;;;;22.47;100.00;100218.88;5040150;28;20080;-58
2023/08/19 09:31:01;;;;;;;21.13;10.53;;;;;;;22.42;100.00;100215.66;5007192;28;20130;-58
2023/08/19 09:37:19;;;;;;;17.77;9.10;;;;;;;22.19;100.00;100223.31;5002875;28;20049;-57
2023/08/19 09:39:59;;;;;;;18.43;9.20;;;;;;;22.19;100.00;100247.28;4992070;28;20056;-57
2023/08/19 09:42:38;;;;;;;17.47;9.77;;;;;;;22.14;100.00;100249.34;5022663;28;20057;-57
2023/08/19 09:45:23;;;;;;;20.10;9.43;;;;;;;22.08;100.00;100244.44;5002400;28;20037;-58
2023/08/19 09:48:32;;;;;;;18.53;9.70;;;;;;;22.07;100.00;100248.06;4990803;28;20062;-57
2023/08/19 09:55:13;;;;;;;20.70;9.07;;;;;;;21.93;100.00;100247.13;5003054;28;20041;-58
2023/08/19 09:58:06;;;;;;;16.17;8.97;;;;;;;22.07;100.00;100250.72;5012762;28;20079;-58
2023/08/19 10:00:42;;;;;;;16.77;9.17;;;;;;;22.10;100.00;100255.84;5022153;28;20056;-56
2023/08/19 10:03:14;;;;;;;15.50;9.27;;;;;;;22.03;100.00;100257.19;5012608;28;20156;-56
2023/08/19 10:05:52;;;;;;;16.73;8.90;;;;;;;21.98;100.00;100260.97;5016552;28;20049;-56
2023/08/19 10:08:28;;;;;;;16.40;8.00;;;;;;;21.60;100.00;100212.06;5009414;28;20136;-56
2023/08/19 10:11:01;;;;;;;14.80;8.83;;;;;;;21.89;100.00;100261.59;4993666;28;20063;-57
2023/08/19 10:13:34;;;;;;;18.17;10.53;;;;;;;21.79;100.00;100259.59;5022358;28;20049;-56
2023/08/19 10:16:13;;;;;;;15.47;9.23;;;;;;;21.74;100.00;100263.41;5013164;28;20349;-57
2023/08/19 10:18:46;;;;;;;;;;;;;;;21.71;100.00;100268.91;5023036;28;20061;-57
2023/08/19 10:21:20;;;;;;;18.37;10.27;;;;;;;21.71;100.00;100268.06;5012329;28;19928;-56
2023/08/19 10:23:56;;;;;;;18.03;10.40;;;;;;;21.66;100.00;100267.50;5022649;28;20135;-57
2023/08/19 10:26:27;;;;;;;19.93;11.20;;;;;;;21.61;100.00;100274.91;5011559;28;20060;-57
2023/08/19 10:29:07;;;;;;;18.40;11.60;;;;;;;21.59;100.00;100296.28;5012193;28;20127;-56
2023/08/19 10:31:40;;;;;;;22.83;12.13;;;;;;;21.36;100.00;100257.75;5022802;28;20048;-56
2023/08/19 10:34:26;;;;;;;20.57;13.13;;;;;;;21.48;100.00;100267.69;5011487;28;20052;-57
2023/08/19 10:37:11;;;;;;;22.30;11.27;;;;;;;21.56;100.00;100269.00;5012248;28;20053;-57
2023/08/19 10:39:48;;;;;;;22.90;12.83;;;;;;;21.48;100.00;100257.03;5022238;28;20721;-58
2023/08/19 10:42:27;;;;;;;22.93;13.10;;;;;;;21.57;100.00;100270.72;5011912;28;20068;-58
2023/08/19 10:44:59;;;;;;;22.23;11.83;;;;;;;21.53;100.00;100276.22;5003144;28;20065;-58
2023/08/19 10:47:34;;;;;;;24.20;12.97;;;;;;;21.51;100.00;100272.78;5015169;28;20131;-57
2023/08/19 10:50:09;;;;;;;22.43;13.50;;;;;;;21.39;100.00;100268.25;5012410;28;20048;-58
2023/08/19 10:52:59;;;;;;;24.33;13.23;;;;;;;21.44;100.00;100276.81;5023238;28;20049;-57
2023/08/19 10:55:53;;;;;;;24.40;14.13;;;;;;;21.40;100.00;100269.97;4998397;28;20049;-57
2023/08/19 10:58:34;;;;;;;23.33;13.60;;;;;;;21.36;100.00;100252.44;5003795;28;20052;-56
2023/08/19 11:01:06;;;;;;;24.13;14.13;;;;;;;21.45;100.00;100267.88;4993853;28;20059;-57
2023/08/19 11:03:39;;;;;;;22.07;14.17;;;;;;;21.44;100.00;100266.19;5002487;28;20096;-57
2023/08/19 11:06:13;;;;;;;20.90;14.30;;;;;;;21.43;100.00;100264.44;5011036;28;20040;-58
2023/08/19 11:08:46;;;;;;;31.60;17.90;;;;;;;21.25;100.00;100249.63;5021499;28;20080;-57
2023/08/19 11:11:20;;;;;;;27.57;16.77;;;;;;;21.31;100.00;100266.00;5011918;28;20080;-57
2023/08/19 11:13:52;;;;;;;29.90;17.23;;;;;;;21.38;100.00;100279.78;5022724;28;20629;-57
2023/08/19 11:16:28;;;;;;;30.40;17.47;;;;;;;21.17;100.00;100246.53;5011527;28;20068;-57
2023/08/19 11:19:01;;;;;;;36.57;18.77;;;;;;;21.33;100.00;100281.88;5011324;28;20491;-57
2023/08/19 11:21:33;;;;;;;27.50;16.83;;;;;;;21.31;100.00;100283.78;5021482;28;20395;-57
2023/08/19 11:24:05;;;;;;;29.27;16.30;;;;;;;21.28;100.00;100283.97;5001696;28;20076;-57
2023/08/19 11:26:39;;;;;;;25.00;15.97;;;;;;;21.29;100.00;100288.31;4999612;28;20154;-55
2023/08/19 11:29:11;;;;;;;24.10;15.33;;;;;;;21.14;100.00;100257.38;4993602;28;20089;-57
2023/08/19 11:31:44;;;;;;;25.63;15.30;;;;;;;21.23;100.00;100278.06;5021511;28;20606;-56
2023/08/19 11:34:17;;;;;;;23.27;14.30;;;;;;;21.14;100.00;100260.88;5012340;28;21233;-57
2023/08/19 11:36:49;;;;;;;25.23;14.97;;;;;;;21.24;100.00;100263.81;5021734;28;20057;-58
2023/08/19 11:39:22;;;;;;;27.87;15.33;;;;;;;21.21;100.00;100264.03;5011037;28;20090;-58
2023/08/19 11:41:59;;;;;;;22.63;15.00;;;;;;;21.18;100.00;100270.38;5020210;28;20527;-57
2023/08/19 11:44:33;;;;;;;28.35;13.55;;;;;;;21.11;100.00;100264.56;5020747;28;20053;-57
2023/08/19 11:47:06;;;;;;;24.00;14.97;;;;;;;21.14;100.00;100266.19;5011177;28;20076;-57
2023/08/19 11:49:38;;;;;;;24.63;15.63;;;;;;;21.15;100.00;100264.41;5021437;28;20040;-57
2023/08/19 11:52:10;;;;;;;24.17;14.87;;;;;;;21.13;100.00;100271.59;4994753;28;20102;-56
2023/08/19 11:54:43;;;;;;;25.10;15.50;;;;;;;21.10;100.00;100273.50;5020554;28;20037;-57
2023/08/19 11:57:18;;;;;;;22.87;14.97;;;;;;;21.16;100.00;100288.22;5011309;28;20487;-57